• Join FlightAware (Why Join?)
  • Login
  • US Flag 
09:13PM EDT


 

Airport Tracker/Info


-or-


 

Live Flight TrackerFlight Track Log ✈ UAL5832 ✈ 21.04.2013 ✈ KORD - KBNA

Flight Track Log - Related Links

Times and Time Zones

All times are in EDT time to prevent confusion due to time zone crossing. See the UAL5832 flight status page for this flight to view local times or setup timezone preferences in your user account.

Time Position Orientation Groundspeed Altitude Reporting Facility
EDT Latitude Longitude Course Direction KTS MPH feet Rate Location/Type
08:12PM 41.9333 -87.9167 180° South 166 191 1,900  Level Chicago TRACON
08:13PM 41.9000 -87.9167 180° South 192 221 3,700 1,800 Climbing Chicago TRACON
08:14PM 41.8247 -87.9081 175° South 211 243 5,900 1,860 Climbing Chicago Center
08:15PM 41.7378 -87.9011 177° South 254 292 8,200 2,220 Climbing Chicago Center
08:16PM 41.6603 -87.8969 178° South 275 316 10,500 2,040 Climbing Chicago Center
08:17PM 41.5817 -87.8897 176° South 282 325 12,500 1,800 Climbing Chicago Center
08:18PM 41.4997 -87.8836 177° South 290 334 14,300 1,500 Climbing Chicago Center
08:19PM 41.4125 -87.8781 177° South 307 353 15,600 1,080 Climbing Chicago Center
08:20PM 41.3197 -87.8869 184° South 328 377 16,600 960 Climbing Chicago Center
08:21PM 41.2217 -87.8931 183° South 346 398 17,700 780 Climbing Chicago Center
08:22PM 41.1211 -87.8889 178° South 358 412 18,300 900 Climbing Chicago Center
08:23PM 40.9975 -87.8850 179° South 368 423 19,600 1,080 Climbing Chicago Center
08:24PM 40.8919 -87.8825 179° South 377 434 20,600 960 Climbing Chicago Center
08:25PM 40.7853 -87.8781 178° South 384 442 21,600 960 Climbing Chicago Center
08:26PM 40.6772 -87.8750 179° South 388 447 22,600 960 Climbing Chicago Center
08:27PM 40.5678 -87.8722 179° South 392 451 23,700 960 Climbing Chicago Center
08:28PM 40.4581 -87.8694 179° South 394 453 24,700 600 Climbing Chicago Center
08:30PM 40.3239 -87.8650 179° South 403 464 25,000 120 Climbing Chicago Center
08:31PM 40.2061 -87.8592 178° South 421 484 25,000  Level Chicago Center
08:32PM 40.0942 -87.8547 178° South 433 498 25,000  Level Chicago Center
08:33PM 39.9706 -87.8483 178° South 441 507 25,000  Level Chicago Center
08:34PM 39.8214 -87.8425 178° South 445 512 25,000  Level Chicago Center
08:35PM 39.6911 -87.8356 178° South 445 512 25,000  Level Indianapolis Center
08:36PM 39.5669 -87.8294 178° South 446 513 25,000  Level Indianapolis Center
08:37PM 39.4417 -87.8250 178° South 447 514 25,000  Level Indianapolis Center
08:38PM 39.2914 -87.8189 178° South 447 514 25,000  Level Indianapolis Center
08:39PM 39.1656 -87.8139 178° South 450 518 25,000  Level Indianapolis Center
08:40PM 39.0403 -87.8092 178° South 449 517 25,000  Level Indianapolis Center
08:41PM 38.9158 -87.8042 178° South 448 516 25,000  Level Indianapolis Center
08:42PM 38.7917 -87.7981 178° South 446 513 25,000  Level Indianapolis Center
08:43PM 38.6675 -87.7931 178° South 446 513 25,000  Level Indianapolis Center
08:44PM 38.5433 -87.7875 178° South 446 513 25,000  Level Indianapolis Center
08:45PM 38.4186 -87.7831 178° South 447 514 25,000  Level Indianapolis Center
08:46PM 38.2936 -87.7769 178° South 449 517 25,000  Level Indianapolis Center
08:47PM 38.1447 -87.7708 178° South 448 516 25,000  Level Indianapolis Center
08:48PM 38.0181 -87.7664 178° South 454 522 25,000  Level Indianapolis Center
08:49PM 37.8953 -87.7322 168° South 463 533 25,000 -120 Level Indianapolis Center
08:50PM 37.7908 -87.6378 144° Southeast 464 534 24,800 -540 Descending Indianapolis Center
08:51PM 37.6800 -87.5417 146° Southeast 461 531 23,900 -840 Descending Indianapolis Center
08:52PM 37.5742 -87.4464 144° Southeast 464 534 23,100 -480 Descending Indianapolis Center
08:53PM 37.4728 -87.3542 144° Southeast 448 516 23,000 -60 Descending Indianapolis Center
08:54PM 37.3900 -87.2847 146° Southeast 431 496 23,000  Level Indianapolis Center
08:55PM 37.2564 -87.2242 160° South 437 503 23,000  Level Indianapolis Center
08:56PM 37.1353 -87.1919 168° South 442 509 23,000 -540 Level Indianapolis Center
08:57PM 37.0092 -87.1539 166° South 442 509 22,000 -1,440 Descending Memphis Center
08:58PM 36.9611 -87.1428 170° South 427 491 21,100 -1,920 Descending Memphis Center
08:58PM 36.8981 -87.1244 167° South 428 493 20,100 -1,980 Descending Memphis Center
08:59PM 36.7886 -87.0822 163° South 423 487 18,000 -1,980 Descending Memphis Center
09:00PM 36.6847 -87.0192 154° Southeast 415 478 16,200 -1,980 Descending Memphis Center
09:01PM 36.5894 -86.9586 153° Southeast 397 457 14,100 -2,100 Descending Memphis Center
09:02PM 36.4939 -86.9006 154° Southeast 378 435 12,000 -1,620 Descending Memphis Center
09:03PM 36.4175 -86.8550 154° Southeast 362 417 10,900 -1,200 Descending Memphis Center
09:04PM 36.3433 -86.8092 154° Southeast 319 367 9,600 -1,500 Descending Memphis Center
09:05PM 36.2692 -86.7661 155° Southeast 279 321 7,900 -1,800 Descending Memphis Center
09:06PM 36.2044 -86.7586 175° South 243 280 6,000 -1,500 Descending Memphis Center
09:07PM 36.1467 -86.7842 200° South 226 260 5,000 -780 Descending Memphis Center
09:08PM 36.0889 -86.8072 198° South 221 254 4,500 -660 Descending Memphis Center
09:09PM 36.0431 -86.8042 177° South 216 249 3,700 -1,200 Descending Memphis Center
09:10PM 36.0436 -86.7503 89° East 136 157 2,200 -1,080 Descending Memphis Center
09:11PM 36.0653 -86.7108 56° Northeast 128 147 1,600 -600 Descending Memphis Center
09:12PM 36.0981 -86.6939 23° Northeast 128 147 1,000 -480 Descending Memphis Center
09:13PM 36.1267 -86.6722 31° Northeast 128 147 700 3,960 Descending Memphis Center
09:14PM 36.1572 -86.6500 30° Northeast 128 147 9,000 8,280 Climbing Memphis Center
09:16PM 36.1167 -86.6667 202° Southwest  Level FlightAware Approximate
09:23PM 36.1245 -86.6782 202° Southwest  Level Estimated
09:24PM 36.1245 -86.6782 202° Southwest  Level Estimated
09:25PM 36.1245 -86.6782 202° Southwest  Level Estimated
09:26PM 36.1245 -86.6782 202° Southwest  Level Estimated
09:27PM 36.1245 -86.6782 202° Southwest  Level Estimated
09:28PM 36.1245 -86.6782 202° Southwest  Level Estimated